sensor_id;sensor_type;location;lat;lon;timestamp;P1;durP1;ratioP1;P2;durP2;ratioP2
65822;SDS011;52585;47.566;19.056;2023-01-19T00:00:15;7.10;;;5.60;;
65822;SDS011;52585;47.566;19.056;2023-01-19T00:02:42;5.70;;;5.00;;
65822;SDS011;52585;47.566;19.056;2023-01-19T00:05:12;5.70;;;4.90;;
65822;SDS011;52585;47.566;19.056;2023-01-19T00:07:38;6.10;;;5.50;;
65822;SDS011;52585;47.566;19.056;2023-01-19T00:10:04;6.80;;;5.50;;
65822;SDS011;52585;47.566;19.056;2023-01-19T00:12:30;6.00;;;5.30;;
65822;SDS011;52585;47.566;19.056;2023-01-19T00:14:56;6.10;;;5.50;;
65822;SDS011;52585;47.566;19.056;2023-01-19T00:17:22;6.90;;;5.70;;
65822;SDS011;52585;47.566;19.056;2023-01-19T00:19:47;6.00;;;5.50;;
65822;SDS011;52585;47.566;19.056;2023-01-19T00:22:13;6.80;;;6.10;;
65822;SDS011;52585;47.566;19.056;2023-01-19T00:24:38;6.10;;;5.50;;
65822;SDS011;52585;47.566;19.056;2023-01-19T00:27:04;6.60;;;5.90;;
65822;SDS011;52585;47.566;19.056;2023-01-19T00:29:29;6.20;;;5.60;;
65822;SDS011;52585;47.566;19.056;2023-01-19T00:32:02;5.90;;;5.30;;
65822;SDS011;52585;47.566;19.056;2023-01-19T00:34:29;5.50;;;4.50;;
65822;SDS011;52585;47.566;19.056;2023-01-19T00:37:10;5.60;;;4.90;;
65822;SDS011;52585;47.566;19.056;2023-01-19T00:39:36;5.30;;;4.80;;
65822;SDS011;52585;47.566;19.056;2023-01-19T00:42:02;5.80;;;4.90;;
65822;SDS011;52585;47.566;19.056;2023-01-19T00:44:46;6.00;;;4.60;;
65822;SDS011;52585;47.566;19.056;2023-01-19T00:47:12;5.80;;;4.50;;
65822;SDS011;52585;47.566;19.056;2023-01-19T00:49:38;4.60;;;4.20;;
65822;SDS011;52585;47.566;19.056;2023-01-19T00:52:04;4.50;;;4.10;;
65822;SDS011;52585;47.566;19.056;2023-01-19T00:54:30;4.30;;;3.90;;
65822;SDS011;52585;47.566;19.056;2023-01-19T00:56:56;3.40;;;3.10;;
65822;SDS011;52585;47.566;19.056;2023-01-19T00:59:21;3.60;;;3.30;;
65822;SDS011;52585;47.566;19.056;2023-01-19T01:01:47;3.30;;;3.00;;
65822;SDS011;52585;47.566;19.056;2023-01-19T01:04:13;3.50;;;2.90;;
65822;SDS011;52585;47.566;19.056;2023-01-19T01:06:38;3.50;;;3.20;;
65822;SDS011;52585;47.566;19.056;2023-01-19T01:09:04;3.50;;;3.20;;
65822;SDS011;52585;47.566;19.056;2023-01-19T01:11:39;3.10;;;2.80;;
65822;SDS011;52585;47.566;19.056;2023-01-19T01:14:08;2.90;;;2.60;;
65822;SDS011;52585;47.566;19.056;2023-01-19T01:16:35;2.70;;;2.50;;
65822;SDS011;52585;47.566;19.056;2023-01-19T01:19:00;2.10;;;2.00;;
65822;SDS011;52585;47.566;19.056;2023-01-19T01:21:26;2.10;;;2.00;;
65822;SDS011;52585;47.566;19.056;2023-01-19T01:23:52;1.90;;;1.80;;
65822;SDS011;52585;47.566;19.056;2023-01-19T01:26:17;1.70;;;1.60;;
65822;SDS011;52585;47.566;19.056;2023-01-19T01:28:43;1.80;;;1.70;;
65822;SDS011;52585;47.566;19.056;2023-01-19T01:31:08;2.10;;;1.90;;
65822;SDS011;52585;47.566;19.056;2023-01-19T01:33:34;1.70;;;1.40;;
65822;SDS011;52585;47.566;19.056;2023-01-19T01:35:59;2.40;;;1.50;;
65822;SDS011;52585;47.566;19.056;2023-01-19T01:38:25;1.60;;;1.50;;
65822;SDS011;52585;47.566;19.056;2023-01-19T01:40:51;1.50;;;1.40;;
65822;SDS011;52585;47.566;19.056;2023-01-19T01:43:18;1.50;;;1.40;;
65822;SDS011;52585;47.566;19.056;2023-01-19T01:45:45;1.50;;;1.40;;
65822;SDS011;52585;47.566;19.056;2023-01-19T01:48:18;1.50;;;1.40;;
65822;SDS011;52585;47.566;19.056;2023-01-19T01:50:56;1.50;;;1.40;;
65822;SDS011;52585;47.566;19.056;2023-01-19T01:53:51;1.30;;;1.20;;
65822;SDS011;52585;47.566;19.056;2023-01-19T01:56:30;1.40;;;1.20;;
65822;SDS011;52585;47.566;19.056;2023-01-19T01:59:03;1.10;;;1.10;;
65822;SDS011;52585;47.566;19.056;2023-01-19T02:01:31;1.30;;;1.20;;
65822;SDS011;52585;47.566;19.056;2023-01-19T02:04:16;1.70;;;1.60;;
65822;SDS011;52585;47.566;19.056;2023-01-19T02:06:43;1.30;;;1.20;;
65822;SDS011;52585;47.566;19.056;2023-01-19T02:09:28;0.80;;;0.80;;
65822;SDS011;52585;47.566;19.056;2023-01-19T02:12:17;1.40;;;1.00;;
65822;SDS011;52585;47.566;19.056;2023-01-19T02:15:02;1.10;;;1.10;;
65822;SDS011;52585;47.566;19.056;2023-01-19T02:17:27;0.90;;;0.90;;
65822;SDS011;52585;47.566;19.056;2023-01-19T02:19:53;0.90;;;0.90;;
65822;SDS011;52585;47.566;19.056;2023-01-19T02:22:48;0.70;;;0.70;;
65822;SDS011;52585;47.566;19.056;2023-01-19T02:25:17;0.60;;;0.60;;
65822;SDS011;52585;47.566;19.056;2023-01-19T02:27:44;0.70;;;0.70;;
65822;SDS011;52585;47.566;19.056;2023-01-19T02:30:12;0.80;;;0.70;;
65822;SDS011;52585;47.566;19.056;2023-01-19T02:32:41;0.60;;;0.60;;
65822;SDS011;52585;47.566;19.056;2023-01-19T02:35:08;0.90;;;0.70;;
65822;SDS011;52585;47.566;19.056;2023-01-19T02:37:36;0.60;;;0.60;;
65822;SDS011;52585;47.566;19.056;2023-01-19T02:40:13;0.60;;;0.60;;
65822;SDS011;52585;47.566;19.056;2023-01-19T02:42:49;0.70;;;0.70;;
65822;SDS011;52585;47.566;19.056;2023-01-19T02:45:20;0.60;;;0.60;;
65822;SDS011;52585;47.566;19.056;2023-01-19T02:47:49;0.80;;;0.60;;
65822;SDS011;52585;47.566;19.056;2023-01-19T03:07:53;0.50;;;0.50;;
65822;SDS011;52585;47.566;19.056;2023-01-19T03:11:09;0.70;;;0.40;;
65822;SDS011;52585;47.566;19.056;2023-01-19T03:19:16;0.60;;;0.50;;
65822;SDS011;52585;47.566;19.056;2023-01-19T03:21:51;0.30;;;0.30;;
65822;SDS011;52585;47.566;19.056;2023-01-19T03:24:24;0.40;;;0.40;;
65822;SDS011;52585;47.566;19.056;2023-01-19T03:26:59;0.20;;;0.20;;
65822;SDS011;52585;47.566;19.056;2023-01-19T03:29:32;0.50;;;0.40;;
65822;SDS011;52585;47.566;19.056;2023-01-19T03:32:02;0.40;;;0.40;;
65822;SDS011;52585;47.566;19.056;2023-01-19T03:34:33;0.40;;;0.40;;
65822;SDS011;52585;47.566;19.056;2023-01-19T03:37:03;0.40;;;0.40;;
65822;SDS011;52585;47.566;19.056;2023-01-19T03:39:31;0.40;;;0.40;;
65822;SDS011;52585;47.566;19.056;2023-01-19T03:42:04;0.30;;;0.30;;
65822;SDS011;52585;47.566;19.056;2023-01-19T03:44:35;0.40;;;0.40;;
65822;SDS011;52585;47.566;19.056;2023-01-19T03:47:03;0.30;;;0.30;;
65822;SDS011;52585;47.566;19.056;2023-01-19T03:49:32;0.40;;;0.40;;
65822;SDS011;52585;47.566;19.056;2023-01-19T03:51:59;0.60;;;0.40;;
65822;SDS011;52585;47.566;19.056;2023-01-19T03:54:25;0.40;;;0.30;;
65822;SDS011;52585;47.566;19.056;2023-01-19T03:56:52;0.40;;;0.40;;
65822;SDS011;52585;47.566;19.056;2023-01-19T03:59:18;0.40;;;0.40;;
65822;SDS011;52585;47.566;19.056;2023-01-19T04:01:45;0.30;;;0.30;;
65822;SDS011;52585;47.566;19.056;2023-01-19T04:04:10;0.40;;;0.40;;
65822;SDS011;52585;47.566;19.056;2023-01-19T04:06:38;0.40;;;0.40;;
65822;SDS011;52585;47.566;19.056;2023-01-19T04:09:04;0.40;;;0.40;;
65822;SDS011;52585;47.566;19.056;2023-01-19T04:11:30;0.40;;;0.40;;
65822;SDS011;52585;47.566;19.056;2023-01-19T04:13:56;0.30;;;0.30;;
65822;SDS011;52585;47.566;19.056;2023-01-19T04:16:21;0.40;;;0.40;;
65822;SDS011;52585;47.566;19.056;2023-01-19T04:18:48;0.30;;;0.30;;
65822;SDS011;52585;47.566;19.056;2023-01-19T04:21:15;0.50;;;0.50;;
65822;SDS011;52585;47.566;19.056;2023-01-19T04:23:41;0.40;;;0.40;;
65822;SDS011;52585;47.566;19.056;2023-01-19T04:26:08;0.40;;;0.40;;
65822;SDS011;52585;47.566;19.056;2023-01-19T04:28:35;0.40;;;0.40;;
65822;SDS011;52585;47.566;19.056;2023-01-19T04:31:02;0.30;;;0.30;;
65822;SDS011;52585;47.566;19.056;2023-01-19T04:33:28;0.50;;;0.50;;
65822;SDS011;52585;47.566;19.056;2023-01-19T04:35:54;0.40;;;0.40;;
65822;SDS011;52585;47.566;19.056;2023-01-19T04:38:21;0.20;;;0.20;;
65822;SDS011;52585;47.566;19.056;2023-01-19T04:40:49;0.20;;;0.20;;
65822;SDS011;52585;47.566;19.056;2023-01-19T04:43:17;0.40;;;0.40;;
65822;SDS011;52585;47.566;19.056;2023-01-19T04:45:44;0.30;;;0.30;;
65822;SDS011;52585;47.566;19.056;2023-01-19T04:48:11;0.30;;;0.30;;
65822;SDS011;52585;47.566;19.056;2023-01-19T04:50:37;0.30;;;0.30;;
65822;SDS011;52585;47.566;19.056;2023-01-19T04:53:03;0.60;;;0.40;;
65822;SDS011;52585;47.566;19.056;2023-01-19T04:55:29;0.20;;;0.20;;
65822;SDS011;52585;47.566;19.056;2023-01-19T04:57:55;0.30;;;0.30;;
65822;SDS011;52585;47.566;19.056;2023-01-19T05:00:21;0.40;;;0.40;;
65822;SDS011;52585;47.566;19.056;2023-01-19T05:02:48;0.30;;;0.30;;
65822;SDS011;52585;47.566;19.056;2023-01-19T05:05:13;0.20;;;0.20;;
65822;SDS011;52585;47.566;19.056;2023-01-19T05:07:39;0.20;;;0.20;;
65822;SDS011;52585;47.566;19.056;2023-01-19T05:10:05;0.20;;;0.20;;
65822;SDS011;52585;47.566;19.056;2023-01-19T05:12:32;0.20;;;0.20;;
65822;SDS011;52585;47.566;19.056;2023-01-19T05:14:58;0.30;;;0.30;;
65822;SDS011;52585;47.566;19.056;2023-01-19T05:17:23;0.40;;;0.40;;
65822;SDS011;52585;47.566;19.056;2023-01-19T05:19:49;0.20;;;0.20;;
65822;SDS011;52585;47.566;19.056;2023-01-19T05:22:15;0.40;;;0.30;;
65822;SDS011;52585;47.566;19.056;2023-01-19T05:24:41;0.20;;;0.20;;
65822;SDS011;52585;47.566;19.056;2023-01-19T05:27:06;0.30;;;0.30;;
65822;SDS011;52585;47.566;19.056;2023-01-19T05:29:32;0.30;;;0.30;;
65822;SDS011;52585;47.566;19.056;2023-01-19T05:31:59;0.40;;;0.40;;
65822;SDS011;52585;47.566;19.056;2023-01-19T05:34:25;0.40;;;0.40;;
65822;SDS011;52585;47.566;19.056;2023-01-19T05:36:51;0.50;;;0.50;;
65822;SDS011;52585;47.566;19.056;2023-01-19T05:39:18;0.50;;;0.50;;
65822;SDS011;52585;47.566;19.056;2023-01-19T05:41:43;0.60;;;0.60;;
65822;SDS011;52585;47.566;19.056;2023-01-19T05:44:10;0.60;;;0.60;;
65822;SDS011;52585;47.566;19.056;2023-01-19T05:46:37;0.60;;;0.60;;
65822;SDS011;52585;47.566;19.056;2023-01-19T05:49:03;0.60;;;0.60;;
65822;SDS011;52585;47.566;19.056;2023-01-19T05:51:35;0.50;;;0.50;;
65822;SDS011;52585;47.566;19.056;2023-01-19T05:54:06;0.50;;;0.50;;
65822;SDS011;52585;47.566;19.056;2023-01-19T05:56:33;0.40;;;0.40;;
65822;SDS011;52585;47.566;19.056;2023-01-19T05:58:59;0.50;;;0.50;;
65822;SDS011;52585;47.566;19.056;2023-01-19T06:01:26;0.50;;;0.50;;
65822;SDS011;52585;47.566;19.056;2023-01-19T06:03:52;0.40;;;0.40;;
65822;SDS011;52585;47.566;19.056;2023-01-19T06:06:19;0.50;;;0.50;;
65822;SDS011;52585;47.566;19.056;2023-01-19T06:08:44;0.30;;;0.30;;
65822;SDS011;52585;47.566;19.056;2023-01-19T06:11:10;0.60;;;0.60;;
65822;SDS011;52585;47.566;19.056;2023-01-19T06:13:36;0.70;;;0.70;;
65822;SDS011;52585;47.566;19.056;2023-01-19T06:16:05;0.50;;;0.50;;
65822;SDS011;52585;47.566;19.056;2023-01-19T06:18:31;1.20;;;0.70;;
65822;SDS011;52585;47.566;19.056;2023-01-19T06:20:57;0.70;;;0.70;;
65822;SDS011;52585;47.566;19.056;2023-01-19T06:23:29;1.00;;;0.50;;
65822;SDS011;52585;47.566;19.056;2023-01-19T06:25:56;1.40;;;0.60;;
65822;SDS011;52585;47.566;19.056;2023-01-19T06:28:22;0.60;;;0.60;;
65822;SDS011;52585;47.566;19.056;2023-01-19T06:30:49;0.70;;;0.70;;
65822;SDS011;52585;47.566;19.056;2023-01-19T06:33:16;1.00;;;0.90;;
65822;SDS011;52585;47.566;19.056;2023-01-19T06:35:44;0.80;;;0.80;;
65822;SDS011;52585;47.566;19.056;2023-01-19T06:38:11;1.20;;;1.10;;
65822;SDS011;52585;47.566;19.056;2023-01-19T06:40:41;1.10;;;1.00;;
65822;SDS011;52585;47.566;19.056;2023-01-19T06:43:07;0.70;;;0.70;;
65822;SDS011;52585;47.566;19.056;2023-01-19T06:45:33;2.20;;;0.90;;
65822;SDS011;52585;47.566;19.056;2023-01-19T06:47:59;1.30;;;1.20;;
65822;SDS011;52585;47.566;19.056;2023-01-19T06:50:26;0.90;;;0.90;;
65822;SDS011;52585;47.566;19.056;2023-01-19T06:52:52;0.70;;;0.70;;
65822;SDS011;52585;47.566;19.056;2023-01-19T06:55:18;0.70;;;0.70;;
65822;SDS011;52585;47.566;19.056;2023-01-19T06:57:44;0.70;;;0.70;;
65822;SDS011;52585;47.566;19.056;2023-01-19T07:00:11;0.70;;;0.70;;
65822;SDS011;52585;47.566;19.056;2023-01-19T07:02:42;0.60;;;0.60;;
65822;SDS011;52585;47.566;19.056;2023-01-19T07:05:09;0.70;;;0.70;;
65822;SDS011;52585;47.566;19.056;2023-01-19T07:07:38;0.80;;;0.80;;
65822;SDS011;52585;47.566;19.056;2023-01-19T07:10:08;0.90;;;0.90;;
65822;SDS011;52585;47.566;19.056;2023-01-19T07:12:36;1.00;;;1.00;;
65822;SDS011;52585;47.566;19.056;2023-01-19T07:15:03;0.90;;;0.90;;
65822;SDS011;52585;47.566;19.056;2023-01-19T07:17:30;1.00;;;1.00;;
65822;SDS011;52585;47.566;19.056;2023-01-19T07:19:55;0.90;;;0.90;;
65822;SDS011;52585;47.566;19.056;2023-01-19T07:22:21;1.00;;;1.00;;
65822;SDS011;52585;47.566;19.056;2023-01-19T07:24:46;1.10;;;1.10;;
65822;SDS011;52585;47.566;19.056;2023-01-19T07:27:12;2.60;;;1.30;;
65822;SDS011;52585;47.566;19.056;2023-01-19T07:29:38;1.40;;;1.30;;
65822;SDS011;52585;47.566;19.056;2023-01-19T07:32:04;1.40;;;1.30;;
65822;SDS011;52585;47.566;19.056;2023-01-19T07:34:30;1.30;;;1.20;;
65822;SDS011;52585;47.566;19.056;2023-01-19T07:36:56;1.40;;;1.30;;
65822;SDS011;52585;47.566;19.056;2023-01-19T07:39:21;1.60;;;1.50;;
65822;SDS011;52585;47.566;19.056;2023-01-19T07:41:48;1.50;;;1.40;;
65822;SDS011;52585;47.566;19.056;2023-01-19T07:44:13;1.40;;;1.30;;
65822;SDS011;52585;47.566;19.056;2023-01-19T07:46:39;1.50;;;1.40;;
65822;SDS011;52585;47.566;19.056;2023-01-19T07:49:05;1.00;;;1.00;;
65822;SDS011;52585;47.566;19.056;2023-01-19T07:51:31;1.40;;;1.30;;
65822;SDS011;52585;47.566;19.056;2023-01-19T07:53:56;1.80;;;1.30;;
65822;SDS011;52585;47.566;19.056;2023-01-19T07:56:22;1.70;;;1.60;;
65822;SDS011;52585;47.566;19.056;2023-01-19T07:58:49;1.50;;;1.40;;
65822;SDS011;52585;47.566;19.056;2023-01-19T08:01:16;1.60;;;1.50;;
65822;SDS011;52585;47.566;19.056;2023-01-19T08:03:43;1.60;;;1.50;;
65822;SDS011;52585;47.566;19.056;2023-01-19T08:06:32;1.50;;;1.40;;
65822;SDS011;52585;47.566;19.056;2023-01-19T08:08:59;1.50;;;1.40;;
65822;SDS011;52585;47.566;19.056;2023-01-19T08:11:25;1.80;;;1.70;;
65822;SDS011;52585;47.566;19.056;2023-01-19T08:13:50;1.50;;;1.40;;
65822;SDS011;52585;47.566;19.056;2023-01-19T08:16:16;1.90;;;1.70;;
65822;SDS011;52585;47.566;19.056;2023-01-19T08:18:41;2.00;;;1.80;;
65822;SDS011;52585;47.566;19.056;2023-01-19T08:21:07;1.70;;;1.60;;
65822;SDS011;52585;47.566;19.056;2023-01-19T08:23:33;2.00;;;1.90;;
65822;SDS011;52585;47.566;19.056;2023-01-19T08:25:58;2.40;;;2.20;;
65822;SDS011;52585;47.566;19.056;2023-01-19T08:28:25;2.10;;;2.00;;
65822;SDS011;52585;47.566;19.056;2023-01-19T08:30:50;2.10;;;1.90;;
65822;SDS011;52585;47.566;19.056;2023-01-19T08:33:20;2.60;;;2.40;;
65822;SDS011;52585;47.566;19.056;2023-01-19T08:35:50;2.50;;;2.30;;
65822;SDS011;52585;47.566;19.056;2023-01-19T08:38:17;2.40;;;2.20;;
65822;SDS011;52585;47.566;19.056;2023-01-19T08:40:43;2.10;;;2.00;;
65822;SDS011;52585;47.566;19.056;2023-01-19T08:43:16;2.50;;;2.30;;
65822;SDS011;52585;47.566;19.056;2023-01-19T08:45:45;2.20;;;2.10;;
65822;SDS011;52585;47.566;19.056;2023-01-19T08:48:17;2.30;;;2.20;;
65822;SDS011;52585;47.566;19.056;2023-01-19T08:50:45;2.80;;;2.20;;
65822;SDS011;52585;47.566;19.056;2023-01-19T08:53:11;3.00;;;2.80;;
65822;SDS011;52585;47.566;19.056;2023-01-19T08:55:37;2.70;;;2.50;;
65822;SDS011;52585;47.566;19.056;2023-01-19T08:58:04;3.10;;;2.80;;
65822;SDS011;52585;47.566;19.056;2023-01-19T09:00:32;4.20;;;3.40;;
65822;SDS011;52585;47.566;19.056;2023-01-19T09:03:00;3.80;;;3.40;;
65822;SDS011;52585;47.566;19.056;2023-01-19T09:05:28;3.80;;;3.30;;
65822;SDS011;52585;47.566;19.056;2023-01-19T09:07:56;4.40;;;3.40;;
65822;SDS011;52585;47.566;19.056;2023-01-19T09:10:21;4.10;;;3.40;;
65822;SDS011;52585;47.566;19.056;2023-01-19T09:12:47;3.60;;;3.10;;
65822;SDS011;52585;47.566;19.056;2023-01-19T09:15:14;3.30;;;3.00;;
65822;SDS011;52585;47.566;19.056;2023-01-19T09:17:39;3.20;;;2.90;;
65822;SDS011;52585;47.566;19.056;2023-01-19T09:20:09;3.60;;;3.30;;
65822;SDS011;52585;47.566;19.056;2023-01-19T09:22:35;3.60;;;3.30;;
65822;SDS011;52585;47.566;19.056;2023-01-19T09:25:00;3.80;;;3.50;;
65822;SDS011;52585;47.566;19.056;2023-01-19T09:27:26;4.80;;;4.30;;
65822;SDS011;52585;47.566;19.056;2023-01-19T09:29:52;4.50;;;3.90;;
65822;SDS011;52585;47.566;19.056;2023-01-19T09:32:19;4.00;;;3.60;;
65822;SDS011;52585;47.566;19.056;2023-01-19T09:34:46;4.30;;;3.90;;
65822;SDS011;52585;47.566;19.056;2023-01-19T09:37:12;4.10;;;3.40;;
65822;SDS011;52585;47.566;19.056;2023-01-19T09:39:40;4.90;;;4.40;;
65822;SDS011;52585;47.566;19.056;2023-01-19T09:45:33;4.20;;;3.80;;
65822;SDS011;52585;47.566;19.056;2023-01-19T09:48:16;4.60;;;4.20;;
65822;SDS011;52585;47.566;19.056;2023-01-19T09:50:43;3.90;;;3.60;;
65822;SDS011;52585;47.566;19.056;2023-01-19T09:53:41;5.00;;;4.00;;
65822;SDS011;52585;47.566;19.056;2023-01-19T09:56:15;5.40;;;4.20;;
65822;SDS011;52585;47.566;19.056;2023-01-19T09:58:42;4.50;;;4.10;;
65822;SDS011;52585;47.566;19.056;2023-01-19T10:03:49;5.40;;;4.80;;
65822;SDS011;52585;47.566;19.056;2023-01-19T10:06:28;5.40;;;4.90;;
65822;SDS011;52585;47.566;19.056;2023-01-19T10:18:26;7.90;;;7.00;;
65822;SDS011;52585;47.566;19.056;2023-01-19T10:21:01;8.30;;;7.00;;
65822;SDS011;52585;47.566;19.056;2023-01-19T10:26:53;8.40;;;7.50;;
65822;SDS011;52585;47.566;19.056;2023-01-19T10:29:31;9.80;;;8.00;;
65822;SDS011;52585;47.566;19.056;2023-01-19T10:32:15;10.60;;;8.00;;
65822;SDS011;52585;47.566;19.056;2023-01-19T10:34:46;9.40;;;8.20;;
65822;SDS011;52585;47.566;19.056;2023-01-19T10:39:44;8.70;;;7.70;;
65822;SDS011;52585;47.566;19.056;2023-01-19T10:42:13;8.40;;;7.60;;
65822;SDS011;52585;47.566;19.056;2023-01-19T10:44:41;8.80;;;7.80;;
65822;SDS011;52585;47.566;19.056;2023-01-19T10:47:19;7.50;;;6.80;;
65822;SDS011;52585;47.566;19.056;2023-01-19T10:49:49;6.80;;;6.20;;
65822;SDS011;52585;47.566;19.056;2023-01-19T10:52:31;6.60;;;6.00;;
65822;SDS011;52585;47.566;19.056;2023-01-19T10:55:02;5.60;;;5.10;;
65822;SDS011;52585;47.566;19.056;2023-01-19T10:57:34;6.80;;;5.90;;
65822;SDS011;52585;47.566;19.056;2023-01-19T11:00:04;6.70;;;5.90;;
65822;SDS011;52585;47.566;19.056;2023-01-19T11:02:32;6.50;;;5.90;;
65822;SDS011;52585;47.566;19.056;2023-01-19T11:04:59;6.50;;;5.90;;
65822;SDS011;52585;47.566;19.056;2023-01-19T11:07:46;5.70;;;5.10;;
65822;SDS011;52585;47.566;19.056;2023-01-19T11:12:46;5.60;;;5.10;;
65822;SDS011;52585;47.566;19.056;2023-01-19T11:15:48;6.00;;;5.40;;
65822;SDS011;52585;47.566;19.056;2023-01-19T11:18:38;5.60;;;4.80;;
65822;SDS011;52585;47.566;19.056;2023-01-19T11:21:09;5.10;;;4.60;;
65822;SDS011;52585;47.566;19.056;2023-01-19T11:23:40;4.70;;;4.30;;
65822;SDS011;52585;47.566;19.056;2023-01-19T11:26:23;5.10;;;4.60;;
65822;SDS011;52585;47.566;19.056;2023-01-19T11:28:54;4.90;;;4.40;;
65822;SDS011;52585;47.566;19.056;2023-01-19T11:34:04;5.90;;;4.80;;
65822;SDS011;52585;47.566;19.056;2023-01-19T11:37:04;6.30;;;5.60;;
65822;SDS011;52585;47.566;19.056;2023-01-19T11:39:52;6.20;;;5.60;;
65822;SDS011;52585;47.566;19.056;2023-01-19T11:42:29;6.10;;;5.50;;
65822;SDS011;52585;47.566;19.056;2023-01-19T11:45:00;6.80;;;6.00;;
65822;SDS011;52585;47.566;19.056;2023-01-19T11:56:00;6.50;;;5.70;;
65822;SDS011;52585;47.566;19.056;2023-01-19T11:58:39;6.80;;;6.10;;
65822;SDS011;52585;47.566;19.056;2023-01-19T12:04:11;8.20;;;5.90;;
65822;SDS011;52585;47.566;19.056;2023-01-19T12:06:42;8.00;;;6.80;;
65822;SDS011;52585;47.566;19.056;2023-01-19T12:09:16;7.10;;;6.40;;
65822;SDS011;52585;47.566;19.056;2023-01-19T12:12:18;6.80;;;5.90;;
65822;SDS011;52585;47.566;19.056;2023-01-19T12:17:32;8.10;;;6.80;;
65822;SDS011;52585;47.566;19.056;2023-01-19T12:20:28;7.70;;;6.80;;
65822;SDS011;52585;47.566;19.056;2023-01-19T12:28:33;6.70;;;6.10;;
65822;SDS011;52585;47.566;19.056;2023-01-19T12:31:04;6.00;;;5.40;;
65822;SDS011;52585;47.566;19.056;2023-01-19T12:33:37;6.30;;;5.60;;
65822;SDS011;52585;47.566;19.056;2023-01-19T12:39:18;9.50;;;6.40;;
65822;SDS011;52585;47.566;19.056;2023-01-19T12:41:46;8.80;;;6.70;;
65822;SDS011;52585;47.566;19.056;2023-01-19T12:46:55;7.30;;;6.60;;
65822;SDS011;52585;47.566;19.056;2023-01-19T12:49:31;7.30;;;6.50;;
65822;SDS011;52585;47.566;19.056;2023-01-19T12:57:50;6.80;;;6.20;;
65822;SDS011;52585;47.566;19.056;2023-01-19T13:02:57;6.90;;;5.80;;
65822;SDS011;52585;47.566;19.056;2023-01-19T13:05:48;5.90;;;5.20;;
65822;SDS011;52585;47.566;19.056;2023-01-19T13:08:54;7.80;;;6.50;;
65822;SDS011;52585;47.566;19.056;2023-01-19T13:11:18;7.00;;;6.30;;
65822;SDS011;52585;47.566;19.056;2023-01-19T13:18:54;7.90;;;6.60;;
65822;SDS011;52585;47.566;19.056;2023-01-19T13:21:44;8.50;;;7.30;;
65822;SDS011;52585;47.566;19.056;2023-01-19T13:24:13;8.00;;;6.50;;
65822;SDS011;52585;47.566;19.056;2023-01-19T13:29:33;7.90;;;6.80;;
65822;SDS011;52585;47.566;19.056;2023-01-19T13:32:12;8.70;;;7.10;;
65822;SDS011;52585;47.566;19.056;2023-01-19T13:34:44;7.80;;;6.10;;
65822;SDS011;52585;47.566;19.056;2023-01-19T13:37:19;6.00;;;5.50;;
65822;SDS011;52585;47.566;19.056;2023-01-19T13:39:48;8.00;;;5.90;;
65822;SDS011;52585;47.566;19.056;2023-01-19T13:47:59;7.10;;;6.30;;
65822;SDS011;52585;47.566;19.056;2023-01-19T13:50:31;8.60;;;6.50;;
65822;SDS011;52585;47.566;19.056;2023-01-19T13:52:59;8.20;;;6.80;;
65822;SDS011;52585;47.566;19.056;2023-01-19T13:55:28;8.90;;;6.80;;
65822;SDS011;52585;47.566;19.056;2023-01-19T13:57:55;8.40;;;6.90;;
65822;SDS011;52585;47.566;19.056;2023-01-19T14:00:24;8.10;;;7.20;;
65822;SDS011;52585;47.566;19.056;2023-01-19T14:02:53;7.90;;;7.10;;
65822;SDS011;52585;47.566;19.056;2023-01-19T14:05:43;6.90;;;6.20;;
65822;SDS011;52585;47.566;19.056;2023-01-19T14:10:43;16.20;;;10.50;;
65822;SDS011;52585;47.566;19.056;2023-01-19T14:13:24;26.50;;;15.60;;
65822;SDS011;52585;47.566;19.056;2023-01-19T14:15:56;43.20;;;21.20;;
65822;SDS011;52585;47.566;19.056;2023-01-19T14:18:28;24.00;;;11.40;;
65822;SDS011;52585;47.566;19.056;2023-01-19T14:20:59;19.30;;;10.90;;
65822;SDS011;52585;47.566;19.056;2023-01-19T14:26:48;16.50;;;9.80;;
65822;SDS011;52585;47.566;19.056;2023-01-19T14:29:33;13.90;;;9.60;;
65822;SDS011;52585;47.566;19.056;2023-01-19T14:37:10;10.40;;;8.20;;
65822;SDS011;52585;47.566;19.056;2023-01-19T14:39:59;10.50;;;8.00;;
65822;SDS011;52585;47.566;19.056;2023-01-19T14:45:36;8.90;;;7.10;;
65822;SDS011;52585;47.566;19.056;2023-01-19T14:48:16;8.00;;;6.80;;
65822;SDS011;52585;47.566;19.056;2023-01-19T14:50:45;7.50;;;6.60;;
65822;SDS011;52585;47.566;19.056;2023-01-19T14:53:22;8.40;;;6.80;;
65822;SDS011;52585;47.566;19.056;2023-01-19T14:56:00;9.40;;;7.10;;
65822;SDS011;52585;47.566;19.056;2023-01-19T14:58:33;12.40;;;8.40;;
65822;SDS011;52585;47.566;19.056;2023-01-19T15:00:59;9.50;;;7.80;;
65822;SDS011;52585;47.566;19.056;2023-01-19T15:03:26;9.30;;;7.60;;
65822;SDS011;52585;47.566;19.056;2023-01-19T15:05:57;8.90;;;6.90;;
65822;SDS011;52585;47.566;19.056;2023-01-19T15:08:29;8.00;;;6.40;;
65822;SDS011;52585;47.566;19.056;2023-01-19T15:11:06;7.20;;;6.00;;
65822;SDS011;52585;47.566;19.056;2023-01-19T15:13:39;9.70;;;7.20;;
65822;SDS011;52585;47.566;19.056;2023-01-19T15:16:06;10.30;;;7.90;;
65822;SDS011;52585;47.566;19.056;2023-01-19T15:18:33;9.20;;;7.80;;
65822;SDS011;52585;47.566;19.056;2023-01-19T15:20:59;10.40;;;8.40;;
65822;SDS011;52585;47.566;19.056;2023-01-19T15:23:31;12.00;;;8.80;;
65822;SDS011;52585;47.566;19.056;2023-01-19T15:26:03;10.60;;;8.20;;
65822;SDS011;52585;47.566;19.056;2023-01-19T15:28:30;8.00;;;6.90;;
65822;SDS011;52585;47.566;19.056;2023-01-19T15:30:57;8.10;;;7.20;;
65822;SDS011;52585;47.566;19.056;2023-01-19T15:33:26;10.10;;;7.10;;
65822;SDS011;52585;47.566;19.056;2023-01-19T15:35:57;9.30;;;7.40;;
65822;SDS011;52585;47.566;19.056;2023-01-19T15:38:23;10.00;;;8.20;;
65822;SDS011;52585;47.566;19.056;2023-01-19T15:40:50;10.70;;;8.40;;
65822;SDS011;52585;47.566;19.056;2023-01-19T15:43:16;12.60;;;9.00;;
65822;SDS011;52585;47.566;19.056;2023-01-19T15:46:01;11.40;;;8.90;;
65822;SDS011;52585;47.566;19.056;2023-01-19T15:48:27;12.50;;;8.50;;
65822;SDS011;52585;47.566;19.056;2023-01-19T15:50:52;10.00;;;8.00;;
65822;SDS011;52585;47.566;19.056;2023-01-19T15:53:19;10.80;;;7.80;;
65822;SDS011;52585;47.566;19.056;2023-01-19T15:55:49;10.40;;;7.60;;
65822;SDS011;52585;47.566;19.056;2023-01-19T15:58:17;13.90;;;9.20;;
65822;SDS011;52585;47.566;19.056;2023-01-19T16:00:45;12.60;;;9.60;;
65822;SDS011;52585;47.566;19.056;2023-01-19T16:03:18;11.80;;;9.30;;
65822;SDS011;52585;47.566;19.056;2023-01-19T16:05:43;12.50;;;8.70;;
65822;SDS011;52585;47.566;19.056;2023-01-19T16:08:10;11.50;;;8.50;;
65822;SDS011;52585;47.566;19.056;2023-01-19T16:10:36;9.10;;;7.60;;
65822;SDS011;52585;47.566;19.056;2023-01-19T16:13:02;9.80;;;7.60;;
65822;SDS011;52585;47.566;19.056;2023-01-19T16:15:28;10.10;;;8.30;;
65822;SDS011;52585;47.566;19.056;2023-01-19T16:17:54;12.00;;;9.00;;
65822;SDS011;52585;47.566;19.056;2023-01-19T16:20:19;10.80;;;9.60;;
65822;SDS011;52585;47.566;19.056;2023-01-19T16:22:45;13.30;;;9.80;;
65822;SDS011;52585;47.566;19.056;2023-01-19T16:25:11;13.10;;;9.50;;
65822;SDS011;52585;47.566;19.056;2023-01-19T16:27:37;13.00;;;10.50;;
65822;SDS011;52585;47.566;19.056;2023-01-19T16:30:03;12.80;;;9.70;;
65822;SDS011;52585;47.566;19.056;2023-01-19T16:32:31;13.10;;;10.00;;
65822;SDS011;52585;47.566;19.056;2023-01-19T16:34:59;12.40;;;9.40;;
65822;SDS011;52585;47.566;19.056;2023-01-19T16:37:25;11.10;;;8.40;;
65822;SDS011;52585;47.566;19.056;2023-01-19T16:39:51;10.20;;;8.00;;